Aviation Digital Data Service (ADDS)

Output produced by METARs form (0553 UTC 19 March 2019)
found at http://www.aviationweather.gov/metar/data/
 
METAR text: NSTU 190450Z 09007KT 12SM FEW020 SCT150 BKN250 30/25 A2979 RMK SLP088 T02980247
Conditions at: NSTU (PAGO PAGO , WS) observed 0450 UTC 19 March 2019
Temperature: 29.8°C (86°F)
Dewpoint: 24.7°C (76°F) [RH = 74%]
Pressure (altimeter): 29.79 inches Hg (1008.9 mb)
[Sea-level pressure: 1008.8 mb]
Winds: from the E (90 degrees) at 8 MPH (7 knots; 3.6 m/s)
Visibility: 12 miles (19 km)
Ceiling: 25000 feet AGL
Clouds: few clouds at 2000 feet AGL
scattered clouds at 15000 feet AGL
broken clouds at 25000 feet AGL
Weather: no significant weather observed at this time

METAR text: NSTU 190350Z 10007KT 12SM FEW020 SCT140 BKN250 31/26 A2977 RMK SLP083 T03090260
Conditions at: NSTU (PAGO PAGO , WS) observed 0350 UTC 19 March 2019
Temperature: 30.9°C (88°F)
Dewpoint: 26.0°C (79°F) [RH = 75%]
Pressure (altimeter): 29.77 inches Hg (1008.2 mb)
[Sea-level pressure: 1008.3 mb]
Winds: from the E (100 degrees) at 8 MPH (7 knots; 3.6 m/s)
Visibility: 12 miles (19 km)
Ceiling: 25000 feet AGL
Clouds: few clouds at 2000 feet AGL
scattered clouds at 14000 feet AGL
broken clouds at 25000 feet AGL
Weather: no significant weather observed at this time

METAR text: NSTU 190250Z 10007KT 12SM FEW020 SCT140 BKN200 30/26 A2977 RMK SLP083 8/177 T03020256 56005
Conditions at: NSTU (PAGO PAGO , WS) observed 0250 UTC 19 March 2019
Temperature: 30.2°C (86°F)
Dewpoint: 25.6°C (78°F) [RH = 76%]
Pressure (altimeter): 29.77 inches Hg (1008.2 mb)
[Sea-level pressure: 1008.3 mb]
Winds: from the E (100 degrees) at 8 MPH (7 knots; 3.6 m/s)
Visibility: 12 miles (19 km)
Ceiling: 20000 feet AGL
Clouds: few clouds at 2000 feet AGL
scattered clouds at 14000 feet AGL
broken clouds at 20000 feet AGL
Weather: no significant weather observed at this time

METAR text: NSTU 190150Z 10007KT 12SM FEW020 SCT140 BKN200 31/26 A2977 RMK SLP083 T03060260
Conditions at: NSTU (PAGO PAGO , WS) observed 0150 UTC 19 March 2019
Temperature: 30.6°C (87°F)
Dewpoint: 26.0°C (79°F) [RH = 77%]
Pressure (altimeter): 29.77 inches Hg (1008.2 mb)
[Sea-level pressure: 1008.3 mb]
Winds: from the E (100 degrees) at 8 MPH (7 knots; 3.6 m/s)
Visibility: 12 miles (19 km)
Ceiling: 20000 feet AGL
Clouds: few clouds at 2000 feet AGL
scattered clouds at 14000 feet AGL
broken clouds at 20000 feet AGL
Weather: no significant weather observed at this time

METAR text: NSTU 190051Z 12008KT 12SM FEW023 SCT140 BKN200 31/26 A2978 RMK SLP083 T03080256
Conditions at: NSTU (PAGO PAGO , WS) observed 0051 UTC 19 March 2019
Temperature: 30.8°C (87°F)
Dewpoint: 25.6°C (78°F) [RH = 74%]
Pressure (altimeter): 29.78 inches Hg (1008.5 mb)
[Sea-level pressure: 1008.3 mb]
Winds: from the ESE (120 degrees) at 9 MPH (8 knots; 4.1 m/s)
Visibility: 12 miles (19 km)
Ceiling: 20000 feet AGL
Clouds: few clouds at 2300 feet AGL
scattered clouds at 14000 feet AGL
broken clouds at 20000 feet AGL
Weather: no significant weather observed at this time

METAR text: NSTU 182350Z 11009KT 12SM FEW023 SCT140 SCT200 31/26 A2979 RMK SLP088 8/171 T03130257 10314 20279 57025
Conditions at: NSTU (PAGO PAGO , WS) observed 2350 UTC 18 March 2019
Temperature: 31.3°C (88°F)
Dewpoint: 25.7°C (78°F) [RH = 72%]
Pressure (altimeter): 29.79 inches Hg (1008.9 mb)
[Sea-level pressure: 1008.8 mb]
Winds: from the ESE (110 degrees) at 10 MPH (9 knots; 4.6 m/s)
Visibility: 12 miles (19 km)
Ceiling: at least 12,000 feet AGL
Clouds: few clouds at 2300 feet AGL
scattered clouds at 14000 feet AGL
scattered clouds at 20000 feet AGL
Weather: no significant weather observed at this time

METAR text: NSTU 182250Z 11007KT 12SM FEW023 SCT140 31/26 A2982 RMK SLP100 T03140257
Conditions at: NSTU (PAGO PAGO , WS) observed 2250 UTC 18 March 2019
Temperature: 31.4°C (89°F)
Dewpoint: 25.7°C (78°F) [RH = 72%]
Pressure (altimeter): 29.82 inches Hg (1009.9 mb)
[Sea-level pressure: 1010.0 mb]
Winds: from the ESE (110 degrees) at 8 MPH (7 knots; 3.6 m/s)
Visibility: 12 miles (19 km)
Ceiling: at least 12,000 feet AGL
Clouds: few clouds at 2300 feet AGL
scattered clouds at 14000 feet AGL
Weather: no significant weather observed at this time

METAR text: NSTU 182150Z VRB05KT 12SM FEW023 SCT140 31/24 A2985 RMK SLP108 T03090244
Conditions at: NSTU (PAGO PAGO , WS) observed 2150 UTC 18 March 2019
Temperature: 30.9°C (88°F)
Dewpoint: 24.4°C (76°F) [RH = 68%]
Pressure (altimeter): 29.85 inches Hg (1010.9 mb)
[Sea-level pressure: 1010.8 mb]
Winds: variable direction winds at 6 MPH (5 knots; 2.6 m/s)
Visibility: 12 miles (19 km)
Ceiling: at least 12,000 feet AGL
Clouds: few clouds at 2300 feet AGL
scattered clouds at 14000 feet AGL
Weather: no significant weather observed at this time

METAR text: NSTU 182050Z VRB03KT 12SM FEW140 SCT200 29/24 A2986 RMK SLP113 8/071 T02930239 52014
Conditions at: NSTU (PAGO PAGO , WS) observed 2050 UTC 18 March 2019
Temperature: 29.3°C (85°F)
Dewpoint: 23.9°C (75°F) [RH = 73%]
Pressure (altimeter): 29.86 inches Hg (1011.3 mb)
[Sea-level pressure: 1011.3 mb]
Winds: variable direction winds at 3 MPH (3 knots; 1.5 m/s)
Visibility: 12 miles (19 km)
Ceiling: at least 12,000 feet AGL
Clouds: few clouds at 14000 feet AGL
scattered clouds at 20000 feet AGL
Weather: no significant weather observed at this time

METAR text: NSTU 181950Z VRB02KT 12SM FEW140 SCT200 29/25 A2986 RMK SLP113 T02910245
Conditions at: NSTU (PAGO PAGO , WS) observed 1950 UTC 18 March 2019
Temperature: 29.1°C (84°F)
Dewpoint: 24.5°C (76°F) [RH = 76%]
Pressure (altimeter): 29.86 inches Hg (1011.3 mb)
[Sea-level pressure: 1011.3 mb]
Winds: variable direction winds at 2 MPH (2 knots; 1.0 m/s)
Visibility: 12 miles (19 km)
Ceiling: at least 12,000 feet AGL
Clouds: few clouds at 14000 feet AGL
scattered clouds at 20000 feet AGL
Weather: no significant weather observed at this time

METAR text: NSTU 181850Z 00000KT 12SM FEW025 SCT100 BKN220 28/24 A2984 RMK SLP105 T02790242
Conditions at: NSTU (PAGO PAGO , WS) observed 1850 UTC 18 March 2019
Temperature: 27.9°C (82°F)
Dewpoint: 24.2°C (76°F) [RH = 80%]
Pressure (altimeter): 29.84 inches Hg (1010.6 mb)
[Sea-level pressure: 1010.5 mb]
Winds: calm
Visibility: 12 miles (19 km)
Ceiling: 22000 feet AGL
Clouds: few clouds at 2500 feet AGL
scattered clouds at 10000 feet AGL
broken clouds at 22000 feet AGL
Weather: no significant weather observed at this time

METAR text: NSTU 181750Z VRB02KT 12SM FEW022 FEW040 BKN100 BKN220 28/23 A2982 RMK SLP100 8/429 T02800230 10280 20244 52015
Conditions at: NSTU (PAGO PAGO , WS) observed 1750 UTC 18 March 2019
Temperature: 28.0°C (82°F)
Dewpoint: 23.0°C (73°F) [RH = 74%]
Pressure (altimeter): 29.82 inches Hg (1009.9 mb)
[Sea-level pressure: 1010.0 mb]
Winds: variable direction winds at 2 MPH (2 knots; 1.0 m/s)
Visibility: 12 miles (19 km)
Ceiling: 10000 feet AGL
Clouds: few clouds at 2200 feet AGL
few clouds at 4000 feet AGL
broken clouds at 10000 feet AGL
broken clouds at 22000 feet AGL
Weather: no significant weather observed at this time

METAR text: NSTU 181650Z 00000KT 11SM FEW022 SCT100 25/23 A2981 RMK SLP095 T02520230
Conditions at: NSTU (PAGO PAGO , WS) observed 1650 UTC 18 March 2019
Temperature: 25.2°C (77°F)
Dewpoint: 23.0°C (73°F) [RH = 88%]
Pressure (altimeter): 29.81 inches Hg (1009.6 mb)
[Sea-level pressure: 1009.5 mb]
Winds: calm
Visibility: 11 miles (18 km)
Ceiling: at least 12,000 feet AGL
Clouds: few clouds at 2200 feet AGL
scattered clouds at 10000 feet AGL
Weather: no significant weather observed at this time

METAR text: NSTU 181550Z 00000KT 10SM FEW022 SCT100 SCT200 25/23 A2980 RMK SLP093 T02540229
Conditions at: NSTU (PAGO PAGO , WS) observed 1550 UTC 18 March 2019
Temperature: 25.4°C (78°F)
Dewpoint: 22.9°C (73°F) [RH = 86%]
Pressure (altimeter): 29.80 inches Hg (1009.2 mb)
[Sea-level pressure: 1009.3 mb]
Winds: calm
Visibility: 10 or more miles (16+ km)
Ceiling: at least 12,000 feet AGL
Clouds: few clouds at 2200 feet AGL
scattered clouds at 10000 feet AGL
scattered clouds at 20000 feet AGL
Weather: no significant weather observed at this time

METAR text: NSTU 181450Z 00000KT 10SM FEW022 SCT100 BKN200 27/23 A2978 RMK SLP085 8/174 T02650230 57005
Conditions at: NSTU (PAGO PAGO , WS) observed 1450 UTC 18 March 2019
Temperature: 26.5°C (80°F)
Dewpoint: 23.0°C (73°F) [RH = 81%]
Pressure (altimeter): 29.78 inches Hg (1008.5 mb)
[Sea-level pressure: 1008.5 mb]
Winds: calm
Visibility: 10 or more miles (16+ km)
Ceiling: 20000 feet AGL
Clouds: few clouds at 2200 feet AGL
scattered clouds at 10000 feet AGL
broken clouds at 20000 feet AGL
Weather: no significant weather observed at this time

METAR text: NSTU 181350Z 00000KT 10SM SCT020 BKN040 OVC100 26/22 A2977 RMK SLP081 T02580222
Conditions at: NSTU (PAGO PAGO , WS) observed 1350 UTC 18 March 2019
Temperature: 25.8°C (78°F)
Dewpoint: 22.2°C (72°F) [RH = 81%]
Pressure (altimeter): 29.77 inches Hg (1008.2 mb)
[Sea-level pressure: 1008.1 mb]
Winds: calm
Visibility: 10 or more miles (16+ km)
Ceiling: 4000 feet AGL
Clouds: scattered clouds at 2000 feet AGL
broken clouds at 4000 feet AGL
overcast cloud deck at 10000 feet AGL
Weather: no significant weather observed at this time

METAR text: NSTU 181250Z VRB03KT 10SM SCT020 BKN040 OVC100 24/21 A2978 RMK SLP085 T02440213
Conditions at: NSTU (PAGO PAGO , WS) observed 1250 UTC 18 March 2019
Temperature: 24.4°C (76°F)
Dewpoint: 21.3°C (70°F) [RH = 83%]
Pressure (altimeter): 29.78 inches Hg (1008.5 mb)
[Sea-level pressure: 1008.5 mb]
Winds: variable direction winds at 3 MPH (3 knots; 1.5 m/s)
Visibility: 10 or more miles (16+ km)
Ceiling: 4000 feet AGL
Clouds: scattered clouds at 2000 feet AGL
broken clouds at 4000 feet AGL
overcast cloud deck at 10000 feet AGL
Weather: no significant weather observed at this time

METAR text: NSTU 181150Z VRB03KT 10SM SCT020 BKN040 OVC100 25/21 A2979 RMK SLP090 60007 70098 8/87/ T02460212 10266 20239 57005
Conditions at: NSTU (PAGO PAGO , WS) observed 1150 UTC 18 March 2019
Temperature: 24.6°C (76°F)
Dewpoint: 21.2°C (70°F) [RH = 81%]
Pressure (altimeter): 29.79 inches Hg (1008.9 mb)
[Sea-level pressure: 1009.0 mb]
Winds: variable direction winds at 3 MPH (3 knots; 1.5 m/s)
Visibility: 10 or more miles (16+ km)
Ceiling: 4000 feet AGL
Clouds: scattered clouds at 2000 feet AGL
broken clouds at 4000 feet AGL
overcast cloud deck at 10000 feet AGL
Weather: no significant weather observed at this time

METAR text: NSTU 181050Z VRB04KT 10SM SCT020 BKN040 OVC100 24/21 A2980 RMK SLP093 T02390211 402940239
Conditions at: NSTU (PAGO PAGO , WS) observed 1050 UTC 18 March 2019
Temperature: 23.9°C (75°F)
Dewpoint: 21.1°C (70°F) [RH = 84%]
Pressure (altimeter): 29.80 inches Hg (1009.2 mb)
[Sea-level pressure: 1009.3 mb]
Winds: variable direction winds at 5 MPH (4 knots; 2.1 m/s)
Visibility: 10 or more miles (16+ km)
Ceiling: 4000 feet AGL
Clouds: scattered clouds at 2000 feet AGL
broken clouds at 4000 feet AGL
overcast cloud deck at 10000 feet AGL
Weather: no significant weather observed at this time

METAR text: NSTU 180952Z VRB04KT 10SM SCT020 BKN040 OVC100 24/22 A2981 RMK SHRAE41 SLP097 T02410215
Conditions at: NSTU (PAGO PAGO , WS) observed 0952 UTC 18 March 2019
Temperature: 24.1°C (75°F)
Dewpoint: 21.5°C (71°F) [RH = 85%]
Pressure (altimeter): 29.81 inches Hg (1009.6 mb)
[Sea-level pressure: 1009.7 mb]
Winds: variable direction winds at 5 MPH (4 knots; 2.1 m/s)
Visibility: 10 or more miles (16+ km)
Ceiling: 4000 feet AGL
Clouds: scattered clouds at 2000 feet AGL
broken clouds at 4000 feet AGL
overcast cloud deck at 10000 feet AGL
Weather: no significant weather observed at this time

METAR text: NSTU 180851Z VRB04KT 7SM -SHRA SCT014 BKN038 OVC090 24/22 A2981 RMK DSNT OCNL LTG S CB S SLP095 60007 8/82/ T02440222 57010
Conditions at: NSTU (PAGO PAGO , WS) observed 0851 UTC 18 March 2019
Temperature: 24.4°C (76°F)
Dewpoint: 22.2°C (72°F) [RH = 88%]
Pressure (altimeter): 29.81 inches Hg (1009.6 mb)
[Sea-level pressure: 1009.5 mb]
Winds: variable direction winds at 5 MPH (4 knots; 2.1 m/s)
Visibility: 7 miles (11 km)
Ceiling: 3800 feet AGL
Clouds: scattered clouds at 1400 feet AGL
broken clouds at 3800 feet AGL
overcast cloud deck at 9000 feet AGL
Weather: -SHRA  (light rain showers)

METAR text: NSTU 180750Z 00000KT 7SM -SHRA SCT014 BKN038 OVC090 25/22 A2984 RMK SLP107 T02520216
Conditions at: NSTU (PAGO PAGO , WS) observed 0750 UTC 18 March 2019
Temperature: 25.2°C (77°F)
Dewpoint: 21.6°C (71°F) [RH = 80%]
Pressure (altimeter): 29.84 inches Hg (1010.6 mb)
[Sea-level pressure: 1010.7 mb]
Winds: calm
Visibility: 7 miles (11 km)
Ceiling: 3800 feet AGL
Clouds: scattered clouds at 1400 feet AGL
broken clouds at 3800 feet AGL
overcast cloud deck at 9000 feet AGL
Weather: -SHRA  (light rain showers)

METAR text: NSTU 180651Z VRB05KT 7SM -SHRA SCT014 BKN038 OVC100 26/23 A2985 RMK SHRAB48 SLP108 T02620225
Conditions at: NSTU (PAGO PAGO , WS) observed 0651 UTC 18 March 2019
Temperature: 26.2°C (79°F)
Dewpoint: 22.5°C (72°F) [RH = 80%]
Pressure (altimeter): 29.85 inches Hg (1010.9 mb)
[Sea-level pressure: 1010.8 mb]
Winds: variable direction winds at 6 MPH (5 knots; 2.6 m/s)
Visibility: 7 miles (11 km)
Ceiling: 3800 feet AGL
Clouds: scattered clouds at 1400 feet AGL
broken clouds at 3800 feet AGL
overcast cloud deck at 10000 feet AGL
Weather: -SHRA  (light rain showers)

METAR text: NSTU 180550Z VRB05KT 10SM FEW014CB SCT040 BKN100 27/23 A2984 RMK CB N-E-SE SLP105 60047 8/320 T02660231 10287 20260 52022
Conditions at: NSTU (PAGO PAGO , WS) observed 0550 UTC 18 March 2019
Temperature: 26.6°C (80°F)
Dewpoint: 23.1°C (74°F) [RH = 81%]
Pressure (altimeter): 29.84 inches Hg (1010.6 mb)
[Sea-level pressure: 1010.5 mb]
Winds: variable direction winds at 6 MPH (5 knots; 2.6 m/s)
Visibility: 10 or more miles (16+ km)
Ceiling: 10000 feet AGL
Clouds: few clouds at 1400 feet AGL
scattered clouds at 4000 feet AGL
broken clouds at 10000 feet AGL
Weather: no significant weather observed at this time

METAR text: NSTU 180451Z 00000KT 10SM SCT014CB BKN040 BKN100 27/24 A2979 RMK SHRAE46 CB N-E AND SW-W SLP088 T02690242
Conditions at: NSTU (PAGO PAGO , WS) observed 0451 UTC 18 March 2019
Temperature: 26.9°C (80°F)
Dewpoint: 24.2°C (76°F) [RH = 85%]
Pressure (altimeter): 29.79 inches Hg (1008.9 mb)
[Sea-level pressure: 1008.8 mb]
Winds: calm
Visibility: 10 or more miles (16+ km)
Ceiling: 4000 feet AGL
Clouds: scattered clouds at 1400 feet AGL
broken clouds at 4000 feet AGL
broken clouds at 10000 feet AGL
Weather: no significant weather observed at this time

METAR text: NSTU 180353Z VRB02KT 10SM -SHRA FEW021 SCT040 OVC100 26/24 A2978 RMK SLP086 T02600238
Conditions at: NSTU (PAGO PAGO , WS) observed 0353 UTC 18 March 2019
Temperature: 26.0°C (79°F)
Dewpoint: 23.8°C (75°F) [RH = 88%]
Pressure (altimeter): 29.78 inches Hg (1008.5 mb)
[Sea-level pressure: 1008.6 mb]
Winds: variable direction winds at 2 MPH (2 knots; 1.0 m/s)
Visibility: 10 or more miles (16+ km)
Ceiling: 10000 feet AGL
Clouds: few clouds at 2100 feet AGL
scattered clouds at 4000 feet AGL
overcast cloud deck at 10000 feet AGL
Weather: -SHRA  (light rain showers)

METAR text: NSTU 180254Z VRB04KT 10SM -SHRA FEW021 SCT040 BKN100 27/24 A2978 RMK SLP083 60044 8/820 T02680241 57014
Conditions at: NSTU (PAGO PAGO , WS) observed 0254 UTC 18 March 2019
Temperature: 26.8°C (80°F)
Dewpoint: 24.1°C (75°F) [RH = 85%]
Pressure (altimeter): 29.78 inches Hg (1008.5 mb)
[Sea-level pressure: 1008.3 mb]
Winds: variable direction winds at 5 MPH (4 knots; 2.1 m/s)
Visibility: 10 or more miles (16+ km)
Ceiling: 10000 feet AGL
Clouds: few clouds at 2100 feet AGL
scattered clouds at 4000 feet AGL
broken clouds at 10000 feet AGL
Weather: -SHRA  (light rain showers)

METAR text: NSTU 180150Z VRB06KT 10SM -SHRA FEW007 BKN015TCU BKN034 OVC100 29/26 A2979 RMK TCU E-SE SLP088 T02860262
Conditions at: NSTU (PAGO PAGO , WS) observed 0150 UTC 18 March 2019
Temperature: 28.6°C (83°F)
Dewpoint: 26.2°C (79°F) [RH = 87%]
Pressure (altimeter): 29.79 inches Hg (1008.9 mb)
[Sea-level pressure: 1008.8 mb]
Winds: variable direction winds at 7 MPH (6 knots; 3.1 m/s)
Visibility: 10 or more miles (16+ km)
Ceiling: 1500 feet AGL
Clouds: few clouds at 700 feet AGL
broken clouds at 1500 feet AGL
broken clouds at 3400 feet AGL
overcast cloud deck at 10000 feet AGL
Weather: -SHRA  (light rain showers)

METAR text: NSTU 180101Z 19008KT 1SM +SHRA FEW007 BKN014TCU OVC034 27/25 A2980 RMK TCU ALQDS
Conditions at: NSTU (PAGO PAGO , WS) observed 0101 UTC 18 March 2019
Temperature: 27.0°C (81°F)
Dewpoint: 25.0°C (77°F) [RH = 89%]
Pressure (altimeter): 29.80 inches Hg (1009.2 mb)
Winds: from the S (190 degrees) at 9 MPH (8 knots; 4.1 m/s)
Visibility: 1.00 miles (1.61 km)
Ceiling: 1400 feet AGL
Clouds: few clouds at 700 feet AGL
broken clouds at 1400 feet AGL
overcast cloud deck at 3400 feet AGL
Weather: +SHRA  (heavy rain showers)

METAR text: NSTU 180050Z 19008KT 5SM -SHRA FEW007 BKN014TCU OVC034 28/25 A2980 RMK SHRAB50 TCU ALQDS SLP093 T02760245
Conditions at: NSTU (PAGO PAGO , WS) observed 0050 UTC 18 March 2019
Temperature: 27.6°C (82°F)
Dewpoint: 24.5°C (76°F) [RH = 83%]
Pressure (altimeter): 29.80 inches Hg (1009.2 mb)
[Sea-level pressure: 1009.3 mb]
Winds: from the S (190 degrees) at 9 MPH (8 knots; 4.1 m/s)
Visibility: 5 miles ( 8 km)
Ceiling: 1400 feet AGL
Clouds: few clouds at 700 feet AGL
broken clouds at 1400 feet AGL
overcast cloud deck at 3400 feet AGL
Weather: -SHRA  (light rain showers)

METAR text: NSTU 172350Z VRB04KT 11SM SCT015TCU BKN040 BKN100 29/25 A2981 RMK TCU W-N-E SLP097 60044 8/470 T02870250 10294 20263 56012
Conditions at: NSTU (PAGO PAGO , WS) observed 2350 UTC 17 March 2019
Temperature: 28.7°C (84°F)
Dewpoint: 25.0°C (77°F) [RH = 80%]
Pressure (altimeter): 29.81 inches Hg (1009.6 mb)
[Sea-level pressure: 1009.7 mb]
Winds: variable direction winds at 5 MPH (4 knots; 2.1 m/s)
Visibility: 11 miles (18 km)
Ceiling: 4000 feet AGL
Clouds: scattered clouds at 1500 feet AGL
broken clouds at 4000 feet AGL
broken clouds at 10000 feet AGL
Weather: no significant weather observed at this time

METAR text: NSTU 172250Z VRB04KT 11SM SCT015TCU BKN040 BKN100 28/25 A2983 RMK TCU NW-N SLP103 T02830251
Conditions at: NSTU (PAGO PAGO , WS) observed 2250 UTC 17 March 2019
Temperature: 28.3°C (83°F)
Dewpoint: 25.1°C (77°F) [RH = 83%]
Pressure (altimeter): 29.83 inches Hg (1010.2 mb)
[Sea-level pressure: 1010.3 mb]
Winds: variable direction winds at 5 MPH (4 knots; 2.1 m/s)
Visibility: 11 miles (18 km)
Ceiling: 4000 feet AGL
Clouds: scattered clouds at 1500 feet AGL
broken clouds at 4000 feet AGL
broken clouds at 10000 feet AGL
Weather: no significant weather observed at this time

METAR text: NSTU 172150Z 14008KT 12SM SCT016TCU BKN040 BKN100 29/26 A2984 RMK TCU SE-SW SLP105 T02930256
Conditions at: NSTU (PAGO PAGO , WS) observed 2150 UTC 17 March 2019
Temperature: 29.3°C (85°F)
Dewpoint: 25.6°C (78°F) [RH = 81%]
Pressure (altimeter): 29.84 inches Hg (1010.6 mb)
[Sea-level pressure: 1010.5 mb]
Winds: from the SE (140 degrees) at 9 MPH (8 knots; 4.1 m/s)
Visibility: 12 miles (19 km)
Ceiling: 4000 feet AGL
Clouds: scattered clouds at 1600 feet AGL
broken clouds at 4000 feet AGL
broken clouds at 10000 feet AGL
Weather: no significant weather observed at this time

METAR text: NSTU 172050Z VRB04KT 12SM SCT014CB BKN040 BKN100 28/26 A2985 RMK SHRAE50 CB SE SLP108 60044 8/370 T02780256 53019
Conditions at: NSTU (PAGO PAGO , WS) observed 2050 UTC 17 March 2019
Temperature: 27.8°C (82°F)
Dewpoint: 25.6°C (78°F) [RH = 88%]
Pressure (altimeter): 29.85 inches Hg (1010.9 mb)
[Sea-level pressure: 1010.8 mb]
Winds: variable direction winds at 5 MPH (4 knots; 2.1 m/s)
Visibility: 12 miles (19 km)
Ceiling: 4000 feet AGL
Clouds: scattered clouds at 1400 feet AGL
broken clouds at 4000 feet AGL
broken clouds at 10000 feet AGL
Weather: no significant weather observed at this time

METAR text: NSTU 172025Z VRB04KT 5SM -SHRA FEW007 BKN014CB OVC035 27/25 A2985 RMK CB N-E-S
Conditions at: NSTU (PAGO PAGO , WS) observed 2025 UTC 17 March 2019
Temperature: 27.0°C (81°F)
Dewpoint: 25.0°C (77°F) [RH = 89%]
Pressure (altimeter): 29.85 inches Hg (1010.9 mb)
Winds: variable direction winds at 5 MPH (4 knots; 2.1 m/s)
Visibility: 5 miles ( 8 km)
Ceiling: 1400 feet AGL
Clouds: few clouds at 700 feet AGL
broken clouds at 1400 feet AGL
overcast cloud deck at 3500 feet AGL
Weather: -SHRA  (light rain showers)

METAR text: NSTU 171950Z VRB06KT 1SM +SHRA FEW007 BKNO14CB OVC035 26/25 A2984 RMK SHRAB37 CB ALQDS SLP107 T02630245
Conditions at: NSTU (PAGO PAGO , WS) observed 1950 UTC 17 March 2019
Temperature: 26.3°C (79°F)
Dewpoint: 24.5°C (76°F) [RH = 90%]
Pressure (altimeter): 29.84 inches Hg (1010.6 mb)
[Sea-level pressure: 1010.7 mb]
Winds: variable direction winds at 7 MPH (6 knots; 3.1 m/s)
Visibility: 1.00 miles (1.61 km)
Ceiling: 3500 feet AGL
Clouds: few clouds at 700 feet AGL
overcast cloud deck at 3500 feet AGL
Weather: +SHRA  (heavy rain showers)

METAR text: NSTU 171850Z VRB05KT 10SM VCSH SCT015TCU BKN040 BKN100 29/25 A2983 RMK VCSH SE-SW TCU SE-SW-W SLP102 T02940253
Conditions at: NSTU (PAGO PAGO , WS) observed 1850 UTC 17 March 2019
Temperature: 29.4°C (85°F)
Dewpoint: 25.3°C (78°F) [RH = 79%]
Pressure (altimeter): 29.83 inches Hg (1010.2 mb)
[Sea-level pressure: 1010.2 mb]
Winds: variable direction winds at 6 MPH (5 knots; 2.6 m/s)
Visibility: 10 or more miles (16+ km)
Ceiling: 4000 feet AGL
Clouds: scattered clouds at 1500 feet AGL
broken clouds at 4000 feet AGL
broken clouds at 10000 feet AGL
Weather: VCSH  (showers in vicinity)

Forecast for: NSTU (PAGO PAGO , WS)
Text: NSTU 190541Z 1906/2006 VRB06KT P6SM VCSH SCT020 BKN040 OVC100
Forecast period: 0600 UTC 19 March 2019 to 0600 UTC 20 March 2019
Forecast type: FROM: standard forecast or significant change
Winds: variable direction winds at 7 MPH (6 knots; 3.1 m/s)
Visibility: 6 or more miles 10+ km)
Ceiling: 4000 feet AGL
Clouds: scattered clouds at 2000 feet AGL
broken clouds at 4000 feet AGL
overcast cloud deck at 10000 feet AGL
Weather: VCSH  (showers in vicinity)